Time;durP1;ratioP1;P1;durP2;ratioP2;P2;SDS_P1;SDS_P2;PMS_P1;PMS_P2;Temp;Humidity;BMP_temperature;BMP_pressure;BME280_temperature;BME280_humidity;BME280_pressure;Samples;Min_cycle;Max_cycle;Signal;HPM_P1;HPM_P2
2024/03/05 00:03:57;;;;;;;15.30;8.07;;;;;;;;;;10143018;28;20062;-75
2024/03/05 00:08:50;;;;;;;11.40;7.72;;;;;;;;;;10122305;28;20056;-75
2024/03/05 00:13:45;;;;;;;12.15;8.85;;;;;;;;;;10129189;28;20044;-76
2024/03/05 00:18:40;;;;;;;13.65;10.15;;;;;;;;;;10133360;28;20048;-76
2024/03/05 00:23:34;;;;;;;15.77;9.55;;;;;;;;;;10138242;28;20378;-73
2024/03/05 00:28:28;;;;;;;10.68;9.43;;;;;;;;;;10133538;28;20794;-75
2024/03/05 00:33:24;;;;;;;17.40;9.93;;;;;;;;;;10136942;28;20045;-75
2024/03/05 00:38:18;;;;;;;13.82;10.80;;;;;;;;;;10145155;28;20507;-75
2024/03/05 00:43:24;;;;;;;13.25;9.63;;;;;;;;;;10143209;28;20048;-75
2024/03/05 00:48:19;;;;;;;14.77;9.27;;;;;;;;;;10145199;28;20063;-76
2024/03/05 00:53:13;;;;;;;13.50;9.10;;;;;;;;;;10144248;28;20127;-75
2024/03/05 00:58:08;;;;;;;13.15;8.70;;;;;;;;;;10135992;28;20055;-75
2024/03/05 01:03:01;;;;;;;13.40;9.13;;;;;;;;;;10139332;28;20048;-75
2024/03/05 01:07:55;;;;;;;17.80;10.10;;;;;;;;;;10144274;28;20044;-75
2024/03/05 01:12:49;;;;;;;14.30;8.18;;;;;;;;;;10143942;28;20098;-75
2024/03/05 01:17:43;;;;;;;15.48;9.40;;;;;;;;;;10143280;28;20527;-74
2024/03/05 01:22:37;;;;;;;11.93;7.78;;;;;;;;;;10143981;28;20504;-75
2024/03/05 01:27:31;;;;;;;15.55;8.23;;;;;;;;;;10141767;28;20411;-76
2024/03/05 01:32:28;;;;;;;13.40;7.35;;;;;;;;;;10142146;28;20454;-75
2024/03/05 01:37:23;;;;;;;12.90;7.57;;;;;;;;;;10143242;28;20049;-75
2024/03/05 01:42:18;;;;;;;9.32;7.40;;;;;;;;;;10143144;28;20076;-75
2024/03/05 01:47:11;;;;;;;12.52;6.50;;;;;;;;;;10139010;28;20064;-75
2024/03/05 01:52:06;;;;;;;9.30;6.57;;;;;;;;;;10142274;28;20056;-75
2024/03/05 01:57:03;;;;;;;7.88;5.15;;;;;;;;;;10146890;28;20053;-75
2024/03/05 02:01:57;;;;;;;10.95;5.90;;;;;;;;;;10144501;28;20071;-75
2024/03/05 02:06:51;;;;;;;12.93;6.10;;;;;;;;;;10147562;28;20052;-74
2024/03/05 02:11:46;;;;;;;8.32;5.90;;;;;;;;;;10145871;28;20189;-75
2024/03/05 02:16:51;;;;;;;7.68;5.43;;;;;;;;;;10147011;28;20056;-75
2024/03/05 02:21:46;;;;;;;10.60;5.10;;;;;;;;;;10145896;28;20151;-74
2024/03/05 02:26:40;;;;;;;8.68;4.60;;;;;;;;;;10147793;28;20048;-74
2024/03/05 02:31:34;;;;;;;8.32;4.50;;;;;;;;;;10147131;28;20127;-75
2024/03/05 02:36:29;;;;;;;10.00;4.40;;;;;;;;;;10146631;28;20048;-74
2024/03/05 02:41:24;;;;;;;8.43;4.82;;;;;;;;;;10147278;28;20040;-75
2024/03/05 02:46:17;;;;;;;6.95;4.78;;;;;;;;;;10146722;28;20088;-74
2024/03/05 02:51:12;;;;;;;10.80;4.03;;;;;;;;;;10144937;28;20119;-73
2024/03/05 02:56:10;;;;;;;3.85;3.10;;;;;;;;;;10141512;28;20044;-74
2024/03/05 03:01:07;;;;;;;4.38;2.90;;;;;;;;;;10144725;28;20083;-74
2024/03/05 03:06:03;;;;;;;7.18;4.20;;;;;;;;;;10144276;28;20123;-74
2024/03/05 03:10:58;;;;;;;8.05;3.15;;;;;;;;;;10145318;28;20411;-76
2024/03/05 03:15:51;;;;;;;10.80;4.18;;;;;;;;;;10144801;28;20063;-75
2024/03/05 03:20:46;;;;;;;6.60;4.07;;;;;;;;;;10145022;28;20099;-75
2024/03/05 03:25:40;;;;;;;7.53;3.53;;;;;;;;;;10143778;28;20054;-75
2024/03/05 03:30:35;;;;;;;8.20;2.97;;;;;;;;;;10143328;28;20500;-74
2024/03/05 03:35:29;;;;;;;8.88;3.00;;;;;;;;;;10136100;28;20044;-75
2024/03/05 03:40:24;;;;;;;7.43;4.05;;;;;;;;;;10143855;28;20098;-75
2024/03/05 03:45:18;;;;;;;7.20;5.35;;;;;;;;;;10142905;28;20060;-75
2024/03/05 03:50:13;;;;;;;6.05;5.45;;;;;;;;;;10143692;28;20051;-74
2024/03/05 03:55:08;;;;;;;6.28;2.70;;;;;;;;;;10143589;28;20060;-76
2024/03/05 04:00:16;;;;;;;2.85;2.55;;;;;;;;;;10143155;28;20163;-75
2024/03/05 04:05:11;;;;;;;15.77;5.13;;;;;;;;;;10142044;28;20101;-75
2024/03/05 04:10:06;;;;;;;21.55;7.30;;;;;;;;;;10142398;28;20048;-75
2024/03/05 04:15:02;;;;;;;12.15;6.82;;;;;;;;;;10133808;28;20662;-75
2024/03/05 04:19:57;;;;;;;9.95;7.50;;;;;;;;;;10141612;28;20494;-75
2024/03/05 04:24:55;;;;;;;12.90;10.43;;;;;;;;;;10143156;28;20139;-74
2024/03/05 04:29:53;;;;;;;5.80;3.43;;;;;;;;;;10140906;28;20044;-74
2024/03/05 04:34:50;;;;;;;4.60;2.50;;;;;;;;;;10136089;28;20072;-75
2024/03/05 04:39:47;;;;;;;4.53;2.60;;;;;;;;;;10137643;28;20389;-75
2024/03/05 04:44:44;;;;;;;6.30;3.03;;;;;;;;;;10133208;28;20032;-74
2024/03/05 04:49:38;;;;;;;3.08;2.45;;;;;;;;;;10139755;28;20139;-74
2024/03/05 04:54:34;;;;;;;3.13;2.45;;;;;;;;;;10142680;28;20084;-75
2024/03/05 04:59:28;;;;;;;7.15;3.20;;;;;;;;;;10139523;28;20151;-75
2024/03/05 05:04:24;;;;;;;4.32;2.50;;;;;;;;;;10142246;28;20075;-74
2024/03/05 05:09:22;;;;;;;3.80;2.53;;;;;;;;;;10140784;28;20139;-75
2024/03/05 05:14:16;;;;;;;3.35;2.90;;;;;;;;;;10141357;28;20044;-76
2024/03/05 05:19:11;;;;;;;3.97;2.65;;;;;;;;;;10141056;28;20059;-75
2024/03/05 05:24:06;;;;;;;2.83;2.50;;;;;;;;;;10140904;28;20056;-75
2024/03/05 05:29:00;;;;;;;6.13;2.42;;;;;;;;;;10143694;28;20048;-76
2024/03/05 05:33:56;;;;;;;2.33;2.00;;;;;;;;;;10144157;28;20040;-76
2024/03/05 05:38:51;;;;;;;5.18;2.88;;;;;;;;;;10136627;28;20056;-75
2024/03/05 05:43:45;;;;;;;10.13;2.70;;;;;;;;;;10146178;28;20048;-75
2024/03/05 05:48:39;;;;;;;2.58;2.38;;;;;;;;;;10147057;28;20040;-75
2024/03/05 05:53:33;;;;;;;9.45;8.30;;;;;;;;;;10147697;28;20040;-75
2024/03/05 05:58:26;;;;;;;12.27;10.10;;;;;;;;;;10148417;28;20059;-76
2024/03/05 06:03:21;;;;;;;112.20;80.53;;;;;;;;;;10147214;28;20044;-74
2024/03/05 06:08:15;;;;;;;38.85;31.75;;;;;;;;;;10147472;28;20049;-75
2024/03/05 06:13:09;;;;;;;7.20;5.95;;;;;;;;;;10146869;28;20045;-75
2024/03/05 06:18:05;;;;;;;9.43;8.32;;;;;;;;;;10145849;28;20068;-76
2024/03/05 06:23:00;;;;;;;5.13;4.10;;;;;;;;;;10145916;28;20061;-75
2024/03/05 06:27:54;;;;;;;8.07;5.90;;;;;;;;;;10144630;28;20080;-75
2024/03/05 06:32:49;;;;;;;3.22;2.70;;;;;;;;;;10139797;28;20496;-75
2024/03/05 06:37:49;;;;;;;7.57;3.42;;;;;;;;;;10139015;28;20143;-75
2024/03/05 06:42:51;;;;;;;;;;;;;;;;;;10143183;28;20455;-75
2024/03/05 06:47:54;;;;;;;17.35;9.32;;;;;;;;;;10148110;28;19961;-75
2024/03/05 06:58:17;;;;;;;27.23;19.42;;;;;;;;;;10148824;28;20051;-75
2024/03/05 07:03:12;;;;;;;13.43;7.22;;;;;;;;;;10146623;28;20591;-75
2024/03/05 07:08:27;;;;;;;6.88;3.30;;;;;;;;;;10144517;28;20607;-75
2024/03/05 07:13:21;;;;;;;13.80;8.82;;;;;;;;;;10144953;28;20554;-75
2024/03/05 07:18:15;;;;;;;14.73;9.95;;;;;;;;;;10143422;28;20040;-75
2024/03/05 07:23:09;;;;;;;13.27;10.57;;;;;;;;;;10144318;28;20118;-75
2024/03/05 07:28:05;;;;;;;22.63;10.93;;;;;;;;;;10138247;28;20470;-75
2024/03/05 07:33:01;;;;;;;12.98;9.40;;;;;;;;;;10143530;28;20049;-75
2024/03/05 07:37:56;;;;;;;7.15;3.50;;;;;;;;;;10143767;28;20052;-75
2024/03/05 07:42:55;;;;;;;16.20;5.50;;;;;;;;;;10141657;28;20048;-75
2024/03/05 07:47:49;;;;;;;11.52;5.60;;;;;;;;;;10144304;28;20507;-77
2024/03/05 07:52:50;;;;;;;6.45;2.75;;;;;;;;;;10125279;28;20048;-75
2024/03/05 07:57:45;;;;;;;8.88;3.42;;;;;;;;;;10144345;28;20040;-75
2024/03/05 08:02:44;;;;;;;2.35;1.10;;;;;;;;;;10138111;28;20055;-75
2024/03/05 08:07:38;;;;;;;13.70;6.80;;;;;;;;;;10142660;28;20527;-76
2024/03/05 08:12:32;;;;;;;11.82;7.05;;;;;;;;;;10141777;28;20052;-75
2024/03/05 08:17:26;;;;;;;11.07;7.05;;;;;;;;;;10142889;28;20143;-75
2024/03/05 08:22:20;;;;;;;6.93;6.13;;;;;;;;;;10141573;28;20060;-75
2024/03/05 08:27:14;;;;;;;9.85;5.70;;;;;;;;;;10139348;28;20118;-75
2024/03/05 08:32:11;;;;;;;8.32;4.18;;;;;;;;;;10139037;28;20131;-75
2024/03/05 08:37:05;;;;;;;5.22;3.90;;;;;;;;;;10138737;28;20424;-76
2024/03/05 08:41:58;;;;;;;8.48;5.40;;;;;;;;;;10141788;28;20053;-75
2024/03/05 08:46:53;;;;;;;11.80;5.47;;;;;;;;;;10141421;28;20052;-75
2024/03/05 08:51:46;;;;;;;6.55;3.35;;;;;;;;;;10141824;28;20568;-75
2024/03/05 08:56:41;;;;;;;4.68;3.58;;;;;;;;;;10140205;28;20052;-77
2024/03/05 09:01:35;;;;;;;4.05;3.00;;;;;;;;;;10140357;28;20499;-75
2024/03/05 09:06:30;;;;;;;17.02;3.13;;;;;;;;;;10139187;28;20075;-76
2024/03/05 09:11:24;;;;;;;8.02;4.10;;;;;;;;;;10141068;28;20045;-76
2024/03/05 09:16:19;;;;;;;6.90;3.67;;;;;;;;;;10140108;28;20076;-75
2024/03/05 09:21:14;;;;;;;12.38;4.03;;;;;;;;;;10140686;28;20067;-75
2024/03/05 09:26:08;;;;;;;8.55;4.60;;;;;;;;;;10140209;28;20419;-75
2024/03/05 09:31:02;;;;;;;7.28;4.65;;;;;;;;;;10138033;28;20048;-75
2024/03/05 09:35:56;;;;;;;7.78;4.95;;;;;;;;;;10137418;28;20049;-75
2024/03/05 09:40:51;;;;;;;25.38;5.22;;;;;;;;;;10140500;28;20049;-75
2024/03/05 09:45:45;;;;;;;7.47;3.80;;;;;;;;;;10139288;28;20052;-76
2024/03/05 09:50:40;;;;;;;8.63;3.55;;;;;;;;;;10122909;28;20144;-75
2024/03/05 09:55:36;;;;;;;5.20;3.60;;;;;;;;;;10131396;28;20063;-76
2024/03/05 10:00:32;;;;;;;4.45;2.83;;;;;;;;;;10138704;28;20060;-76
2024/03/05 10:05:26;;;;;;;6.85;3.63;;;;;;;;;;10141534;28;20051;-76
2024/03/05 10:10:21;;;;;;;8.45;3.38;;;;;;;;;;10139347;28;20065;-76
2024/03/05 10:15:23;;;;;;;3.70;2.58;;;;;;;;;;10136177;28;20094;-75
2024/03/05 10:20:32;;;;;;;6.85;3.08;;;;;;;;;;10134389;28;20052;-75
2024/03/05 10:25:27;;;;;;;4.82;3.15;;;;;;;;;;10140234;28;20483;-75
2024/03/05 10:30:31;;;;;;;3.90;2.30;;;;;;;;;;10149032;28;20451;-75
2024/03/05 10:35:27;;;;;;;3.13;2.60;;;;;;;;;;10139248;28;20060;-75
2024/03/05 10:40:21;;;;;;;6.78;2.70;;;;;;;;;;10147635;28;20110;-75
2024/03/05 10:45:16;;;;;;;5.55;3.17;;;;;;;;;;10144420;28;20052;-75
2024/03/05 10:50:13;;;;;;;4.25;2.13;;;;;;;;;;10129233;28;20135;-76
2024/03/05 10:55:11;;;;;;;5.90;2.03;;;;;;;;;;10140757;28;20095;-76
2024/03/05 11:00:10;;;;;;;3.85;1.88;;;;;;;;;;10128716;28;20393;-75
2024/03/05 11:05:06;;;;;;;8.85;1.58;;;;;;;;;;10148305;28;20045;-75
2024/03/05 11:10:02;;;;;;;2.77;1.50;;;;;;;;;;10146054;28;20087;-76
2024/03/05 11:14:57;;;;;;;3.03;1.40;;;;;;;;;;10146946;28;20415;-75
2024/03/05 11:19:50;;;;;;;6.00;2.25;;;;;;;;;;10134127;28;20420;-75
2024/03/05 11:24:44;;;;;;;9.30;3.58;;;;;;;;;;10145454;28;20412;-76
2024/03/05 11:29:41;;;;;;;5.32;3.08;;;;;;;;;;10145429;28;20044;-75
2024/03/05 11:34:35;;;;;;;2.53;1.65;;;;;;;;;;10133499;28;20098;-74
2024/03/05 11:39:30;;;;;;;8.57;2.50;;;;;;;;;;10143851;28;20056;-75
2024/03/05 11:44:35;;;;;;;3.58;2.22;;;;;;;;;;10130111;28;20106;-76
2024/03/05 11:49:38;;;;;;;5.88;2.00;;;;;;;;;;10138117;28;20568;-75
2024/03/05 11:54:33;;;;;;;5.65;2.67;;;;;;;;;;10143437;28;20094;-76
2024/03/05 11:59:35;;;;;;;4.10;1.50;;;;;;;;;;10125687;28;20117;-76
2024/03/05 12:04:28;;;;;;;6.40;1.98;;;;;;;;;;10131093;28;20052;-77
2024/03/05 12:09:23;;;;;;;6.43;2.88;;;;;;;;;;10135898;28;20056;-75
2024/03/05 12:14:18;;;;;;;7.07;2.70;;;;;;;;;;10126178;28;20428;-75
2024/03/05 12:19:14;;;;;;;4.10;2.20;;;;;;;;;;10140570;28;20135;-75
2024/03/05 12:24:15;;;;;;;3.40;1.90;;;;;;;;;;10134768;28;20052;-74
2024/03/05 12:29:09;;;;;;;3.60;2.92;;;;;;;;;;10142058;28;20458;-74
2024/03/05 12:34:03;;;;;;;11.38;5.00;;;;;;;;;;10134074;28;20045;-74
2024/03/05 12:38:57;;;;;;;5.43;2.45;;;;;;;;;;10140343;28;20162;-75
2024/03/05 12:43:53;;;;;;;6.65;2.97;;;;;;;;;;10131884;28;20048;-74
2024/03/05 12:48:48;;;;;;;7.82;2.83;;;;;;;;;;10138789;28;20053;-75
2024/03/05 12:53:42;;;;;;;6.35;2.30;;;;;;;;;;10141614;28;20072;-75
2024/03/05 12:58:40;;;;;;;7.30;3.65;;;;;;;;;;10140548;28;20141;-74
2024/03/05 13:03:35;;;;;;;5.40;2.28;;;;;;;;;;10140695;28;20048;-75
2024/03/05 13:08:30;;;;;;;7.38;3.63;;;;;;;;;;10139997;28;20098;-75
2024/03/05 13:13:24;;;;;;;5.85;3.80;;;;;;;;;;10142494;28;20051;-74
2024/03/05 13:18:18;;;;;;;6.60;3.97;;;;;;;;;;10138522;28;20122;-75
2024/03/05 13:23:12;;;;;;;5.50;3.95;;;;;;;;;;10134231;28;20053;-74
2024/03/05 13:28:07;;;;;;;8.30;4.70;;;;;;;;;;10140511;28;20040;-74
2024/03/05 13:33:04;;;;;;;10.60;3.70;;;;;;;;;;10136489;28;20377;-75
2024/03/05 13:37:59;;;;;;;6.33;3.70;;;;;;;;;;10142430;28;20044;-74
2024/03/05 13:42:54;;;;;;;9.65;3.80;;;;;;;;;;10141020;28;20068;-74
2024/03/05 13:47:49;;;;;;;10.82;3.83;;;;;;;;;;10138834;28;20420;-75
2024/03/05 13:52:44;;;;;;;10.15;4.53;;;;;;;;;;10148033;28;20063;-73
2024/03/05 13:57:37;;;;;;;6.70;5.68;;;;;;;;;;10147790;28;20047;-75
2024/03/05 14:02:31;;;;;;;10.10;6.70;;;;;;;;;;10147799;28;20048;-75
2024/03/05 14:07:28;;;;;;;11.60;4.30;;;;;;;;;;10147587;28;20117;-75
2024/03/05 14:12:23;;;;;;;7.28;3.92;;;;;;;;;;10146659;28;20056;-74
2024/03/05 14:17:17;;;;;;;6.30;3.78;;;;;;;;;;10147224;28;20048;-74
2024/03/05 14:22:11;;;;;;;13.43;3.95;;;;;;;;;;10138847;28;20124;-75
2024/03/05 14:27:05;;;;;;;7.60;4.43;;;;;;;;;;10145321;28;20041;-75
2024/03/05 14:31:59;;;;;;;7.68;4.82;;;;;;;;;;10145494;28;20049;-75
2024/03/05 14:36:53;;;;;;;7.82;4.22;;;;;;;;;;10145083;28;20063;-75
2024/03/05 14:41:47;;;;;;;14.68;5.15;;;;;;;;;;10146020;28;20450;-75
2024/03/05 14:46:41;;;;;;;8.60;4.25;;;;;;;;;;10144791;28;20055;-75
2024/03/05 14:51:36;;;;;;;9.65;3.78;;;;;;;;;;10144285;28;20417;-74
2024/03/05 14:56:34;;;;;;;6.10;4.00;;;;;;;;;;10144633;28;20052;-75
2024/03/05 15:01:28;;;;;;;7.22;4.82;;;;;;;;;;10143072;28;20053;-74
2024/03/05 15:06:21;;;;;;;7.32;5.72;;;;;;;;;;10144754;28;20052;-75
2024/03/05 15:11:15;;;;;;;7.15;4.55;;;;;;;;;;10144666;28;20135;-75
2024/03/05 15:16:10;;;;;;;11.00;4.30;;;;;;;;;;10145061;28;20110;-75
2024/03/05 15:21:09;;;;;;;8.00;5.18;;;;;;;;;;10145054;28;20095;-75
2024/03/05 15:26:05;;;;;;;12.30;4.97;;;;;;;;;;10143631;28;20090;-74
2024/03/05 15:31:00;;;;;;;12.93;5.03;;;;;;;;;;10141373;28;20411;-75
2024/03/05 15:35:54;;;;;;;7.38;4.03;;;;;;;;;;10144731;28;20052;-74
2024/03/05 15:40:48;;;;;;;10.32;5.45;;;;;;;;;;10144173;28;20053;-74
2024/03/05 15:45:42;;;;;;;7.75;4.47;;;;;;;;;;10142770;28;20043;-75
2024/03/05 15:50:36;;;;;;;9.68;3.90;;;;;;;;;;10136781;28;20201;-73
2024/03/05 15:55:38;;;;;;;5.65;3.47;;;;;;;;;;10143747;28;20054;-73
2024/03/05 16:00:36;;;;;;;9.45;5.03;;;;;;;;;;10130563;28;20036;-73
2024/03/05 16:05:44;;;;;;;8.05;4.55;;;;;;;;;;10122480;28;20041;-73
2024/03/05 16:10:55;;;;;;;8.38;4.75;;;;;;;;;;10142717;28;20052;-74
2024/03/05 16:15:50;;;;;;;6.80;3.30;;;;;;;;;;10141160;28;20131;-74
2024/03/05 16:20:45;;;;;;;8.70;4.40;;;;;;;;;;10138034;28;20990;-73
2024/03/05 16:25:39;;;;;;;10.20;4.63;;;;;;;;;;10137763;28;20052;-73
2024/03/05 16:30:34;;;;;;;6.70;4.07;;;;;;;;;;10138924;28;20062;-72
2024/03/05 16:35:32;;;;;;;6.10;5.10;;;;;;;;;;10142515;28;20040;-74
2024/03/05 16:40:26;;;;;;;8.52;5.00;;;;;;;;;;10136945;28;20385;-74
2024/03/05 16:45:22;;;;;;;10.85;5.50;;;;;;;;;;10142565;28;20053;-74
2024/03/05 16:50:15;;;;;;;12.73;6.93;;;;;;;;;;10134594;28;20052;-74
2024/03/05 16:55:10;;;;;;;9.38;7.93;;;;;;;;;;10141770;28;20048;-74
2024/03/05 17:00:23;;;;;;;8.75;7.13;;;;;;;;;;10139971;28;20060;-73
2024/03/05 17:05:25;;;;;;;17.50;8.00;;;;;;;;;;10137936;28;20056;-73
2024/03/05 17:10:25;;;;;;;13.75;9.65;;;;;;;;;;10140392;28;20056;-73
2024/03/05 17:15:19;;;;;;;7.60;5.03;;;;;;;;;;10140453;28;20135;-72
2024/03/05 17:20:17;;;;;;;16.90;13.30;;;;;;;;;;10141759;28;20049;-73
2024/03/05 17:25:12;;;;;;;11.90;7.00;;;;;;;;;;10099724;28;20520;-73
2024/03/05 17:30:10;;;;;;;62.75;35.58;;;;;;;;;;10101212;28;20049;-73
2024/03/05 17:35:05;;;;;;;12.43;9.95;;;;;;;;;;10100756;28;20071;-74
2024/03/05 17:39:59;;;;;;;28.35;15.35;;;;;;;;;;10101061;28;20063;-73
2024/03/05 17:44:53;;;;;;;17.40;11.77;;;;;;;;;;10099611;28;20501;-73
2024/03/05 17:49:48;;;;;;;13.88;8.95;;;;;;;;;;10100281;28;20045;-72
2024/03/05 17:54:44;;;;;;;9.90;7.03;;;;;;;;;;10101549;28;20052;-73
2024/03/05 17:59:39;;;;;;;10.68;7.60;;;;;;;;;;10100590;28;20428;-73
2024/03/05 18:04:33;;;;;;;21.95;11.43;;;;;;;;;;10099853;28;20049;-73
2024/03/05 18:09:28;;;;;;;20.83;10.82;;;;;;;;;;10099500;28;20144;-73
2024/03/05 18:14:22;;;;;;;14.85;7.57;;;;;;;;;;10073179;28;20098;-73
2024/03/05 18:19:16;;;;;;;33.53;18.58;;;;;;;;;;10091417;28;20139;-74
2024/03/05 18:24:11;;;;;;;11.32;10.05;;;;;;;;;;10088276;28;20056;-72
2024/03/05 18:29:06;;;;;;;22.65;16.60;;;;;;;;;;10090888;28;20053;-72
2024/03/05 18:33:59;;;;;;;17.73;15.48;;;;;;;;;;10090739;28;20135;-73
2024/03/05 18:38:53;;;;;;;22.40;19.23;;;;;;;;;;10101973;28;20044;-72
2024/03/05 18:43:47;;;;;;;12.68;10.63;;;;;;;;;;10104292;28;20057;-73
2024/03/05 18:48:42;;;;;;;10.02;6.20;;;;;;;;;;10101407;28;20412;-73
2024/03/05 18:53:36;;;;;;;7.57;5.10;;;;;;;;;;10099489;28;20053;-72
2024/03/05 18:58:41;;;;;;;7.85;3.88;;;;;;;;;;10098808;28;20049;-72
2024/03/05 19:03:35;;;;;;;8.98;4.88;;;;;;;;;;10094298;28;20059;-73
2024/03/05 19:08:32;;;;;;;5.57;3.50;;;;;;;;;;10099335;28;20056;-73
2024/03/05 19:13:28;;;;;;;4.50;3.10;;;;;;;;;;10084838;28;20049;-74
2024/03/05 19:18:23;;;;;;;7.47;3.80;;;;;;;;;;10097414;28;20083;-74
2024/03/05 19:23:17;;;;;;;3.60;3.15;;;;;;;;;;10102674;28;20060;-73
2024/03/05 19:28:11;;;;;;;8.90;5.72;;;;;;;;;;10095711;28;20085;-72
2024/03/05 19:33:06;;;;;;;5.90;3.10;;;;;;;;;;10090437;28;20053;-73
2024/03/05 19:38:01;;;;;;;3.35;2.28;;;;;;;;;;10101259;28;20428;-74
2024/03/05 19:42:55;;;;;;;5.32;2.33;;;;;;;;;;10075254;28;20048;-73
2024/03/05 19:47:49;;;;;;;2.83;2.08;;;;;;;;;;10100587;28;20049;-74
2024/03/05 19:52:45;;;;;;;4.07;2.63;;;;;;;;;;10097685;28;20063;-74
2024/03/05 19:57:39;;;;;;;3.88;3.05;;;;;;;;;;10105388;28;20053;-76
2024/03/05 20:02:37;;;;;;;11.40;3.65;;;;;;;;;;10095598;28;20056;-75
2024/03/05 20:07:32;;;;;;;9.65;2.88;;;;;;;;;;10097312;28;20053;-76
2024/03/05 20:12:26;;;;;;;4.55;3.60;;;;;;;;;;10093906;28;20048;-77
2024/03/05 20:17:20;;;;;;;9.40;7.15;;;;;;;;;;10093388;28;20102;-75
2024/03/05 20:22:18;;;;;;;8.55;4.68;;;;;;;;;;10102831;28;20061;-73
2024/03/05 20:27:13;;;;;;;14.02;6.47;;;;;;;;;;10100268;28;20552;-74
2024/03/05 20:32:09;;;;;;;5.60;4.65;;;;;;;;;;10101437;28;20053;-74
2024/03/05 20:37:06;;;;;;;5.13;2.67;;;;;;;;;;10096840;28;20059;-74
2024/03/05 20:41:59;;;;;;;5.80;2.50;;;;;;;;;;10091698;28;20048;-73
2024/03/05 20:46:53;;;;;;;4.78;2.92;;;;;;;;;;10099012;28;20053;-74
2024/03/05 20:51:48;;;;;;;2.25;1.67;;;;;;;;;;10094244;28;20059;-73
2024/03/05 20:56:41;;;;;;;3.92;2.45;;;;;;;;;;10101959;28;20113;-73
2024/03/05 21:01:38;;;;;;;8.20;3.85;;;;;;;;;;10087567;28;20516;-73
2024/03/05 21:06:32;;;;;;;2.08;1.88;;;;;;;;;;10099762;28;20500;-73
2024/03/05 21:11:27;;;;;;;4.50;2.05;;;;;;;;;;10096820;28;20140;-73
2024/03/05 21:16:22;;;;;;;3.65;1.70;;;;;;;;;;10092385;28;20048;-73
2024/03/05 21:21:15;;;;;;;2.72;2.10;;;;;;;;;;10093046;28;20083;-73
2024/03/05 21:26:12;;;;;;;3.17;2.33;;;;;;;;;;10137519;28;20056;-73
2024/03/05 21:31:28;;;;;;;5.25;1.88;;;;;;;;;;10138149;28;20153;-72
2024/03/05 21:36:26;;;;;;;1.77;1.65;;;;;;;;;;10135323;28;20056;-73
2024/03/05 21:41:20;;;;;;;4.80;2.30;;;;;;;;;;10138943;28;20040;-73
2024/03/05 21:46:16;;;;;;;18.33;8.73;;;;;;;;;;10141363;28;20044;-72
2024/03/05 21:51:10;;;;;;;4.45;2.28;;;;;;;;;;10135480;28;20419;-73
2024/03/05 21:56:08;;;;;;;5.75;2.40;;;;;;;;;;10135038;28;20067;-74
2024/03/05 22:01:02;;;;;;;4.50;2.40;;;;;;;;;;10129365;28;20041;-73
2024/03/05 22:05:55;;;;;;;4.28;2.28;;;;;;;;;;10135309;28;20094;-73
2024/03/05 22:11:01;;;;;;;5.32;4.82;;;;;;;;;;10139572;28;20151;-73
2024/03/05 22:15:55;;;;;;;4.45;2.95;;;;;;;;;;10137918;28;20048;-73
2024/03/05 22:20:51;;;;;;;3.53;2.70;;;;;;;;;;10144822;28;20055;-73
2024/03/05 22:25:46;;;;;;;2.25;2.00;;;;;;;;;;10139831;28;20049;-73
2024/03/05 22:30:40;;;;;;;4.05;1.95;;;;;;;;;;10144817;28;20059;-73
2024/03/05 22:35:33;;;;;;;4.63;2.67;;;;;;;;;;10145214;28;20067;-73
2024/03/05 22:40:28;;;;;;;3.30;2.47;;;;;;;;;;10145683;28;20060;-73
2024/03/05 22:45:23;;;;;;;4.43;2.80;;;;;;;;;;10146237;28;20044;-73
2024/03/05 22:50:18;;;;;;;9.48;2.22;;;;;;;;;;10142543;28;20057;-73
2024/03/05 22:55:12;;;;;;;6.40;2.17;;;;;;;;;;10145799;28;20048;-74
2024/03/05 23:00:43;;;;;;;4.28;2.55;;;;;;;;;;10145736;28;20135;-74
2024/03/05 23:05:30;;;;;;;5.57;2.70;;;;;;;;;;10105957;28;20097;-74
2024/03/05 23:10:27;;;;;;;8.20;2.45;;;;;;;;;;10144704;28;20045;-73
2024/03/05 23:15:22;;;;;;;2.90;1.90;;;;;;;;;;10140111;28;20083;-73
2024/03/05 23:20:19;;;;;;;9.98;2.65;;;;;;;;;;10141251;28;20087;-72
2024/03/05 23:25:14;;;;;;;6.75;1.88;;;;;;;;;;10140061;28;20496;-73
2024/03/05 23:30:10;;;;;;;4.00;1.60;;;;;;;;;;10145899;28;20049;-72
2024/03/05 23:35:06;;;;;;;6.40;2.10;;;;;;;;;;10144471;28;20044;-72
2024/03/05 23:40:00;;;;;;;5.70;2.45;;;;;;;;;;10144681;28;20060;-74
2024/03/05 23:44:54;;;;;;;4.75;1.75;;;;;;;;;;10142285;28;20060;-72
2024/03/05 23:49:48;;;;;;;5.95;1.85;;;;;;;;;;10144714;28;20059;-72
2024/03/05 23:54:43;;;;;;;9.18;3.50;;;;;;;;;;10126774;28;20089;-72
2024/03/05 23:59:40;;;;;;;7.93;3.85;;;;;;;;;;10132587;28;20527;-78
